CheckWX is a tool to help pilots better visualize weather data.  It is not intended as a substitute for an official pre-flight weather briefing.

07:11:16 UTC

EBCV TAF
Chièvres Air Base Airport
Chièvres, Belgium
TAF EBCV 160541Z 1607/1616 22010KT 9999 SCT030 BKN100 TEMPO 1611/1616 5000 -SHRA BKN025 BY EBWM

Jun-16@
07:00 UTC

Jun-16 @ 07:00 UTC

Jun-16@
16:00 UTC

Jun-16 @ 16:00 UTC

TAF EBCV 160541Z 1607/1616 22010KT 9999 SCT030 BKN100
Wind
  • 220° at 10 KTS
Cloud Levels
  • Scattered at 3,000' AGL
  • Broken at 10,000' AGL

Jun-16@
11:00 UTC

Jun-16 @ 11:00 UTC

Jun-16@
16:00 UTC

Jun-16 @ 16:00 UTC

TEMPO 1611/1616 5000 -SHRA BKN025 BY EBWM

Temporary

Temporary Changes expected for less than half the time period

Conditions
Light Rain
Cloud Levels
  • Broken at 2,500' AGL